sensor_id;sensor_type;location;lat;lon;timestamp;pressure;altitude;pressure_sealevel;temperature;humidity
28448;BME280;15675;52.870;-1.416;2022-11-02T00:00:47;100171.03;;;9.61;100.00
28448;BME280;15675;52.870;-1.416;2022-11-02T00:03:13;100171.91;;;9.24;100.00
28448;BME280;15675;52.870;-1.416;2022-11-02T00:05:38;100184.00;;;9.31;100.00
28448;BME280;15675;52.870;-1.416;2022-11-02T00:08:04;100181.41;;;9.50;100.00
28448;BME280;15675;52.870;-1.416;2022-11-02T00:10:29;100195.22;;;9.50;100.00
28448;BME280;15675;52.870;-1.416;2022-11-02T00:12:55;100204.72;;;9.44;100.00
28448;BME280;15675;52.870;-1.416;2022-11-02T00:15:23;100207.31;;;9.47;100.00
28448;BME280;15675;52.870;-1.416;2022-11-02T00:17:55;100218.53;;;9.38;100.00
28448;BME280;15675;52.870;-1.416;2022-11-02T00:20:22;100227.16;;;9.62;100.00
28448;BME280;15675;52.870;-1.416;2022-11-02T00:22:51;100232.34;;;9.68;100.00
28448;BME280;15675;52.870;-1.416;2022-11-02T00:25:20;100228.88;;;9.47;100.00
28448;BME280;15675;52.870;-1.416;2022-11-02T00:27:46;100247.88;;;9.39;100.00
28448;BME280;15675;52.870;-1.416;2022-11-02T00:30:11;100236.69;;;9.52;100.00
28448;BME280;15675;52.870;-1.416;2022-11-02T00:32:37;100245.28;;;9.42;100.00
28448;BME280;15675;52.870;-1.416;2022-11-02T00:35:03;100256.53;;;9.70;100.00
28448;BME280;15675;52.870;-1.416;2022-11-02T00:37:29;100260.84;;;9.74;100.00
28448;BME280;15675;52.870;-1.416;2022-11-02T00:39:54;100278.13;;;9.64;100.00
28448;BME280;15675;52.870;-1.416;2022-11-02T00:42:20;100288.50;;;9.60;100.00
28448;BME280;15675;52.870;-1.416;2022-11-02T00:44:45;100291.97;;;9.66;100.00
28448;BME280;15675;52.870;-1.416;2022-11-02T00:47:11;100298.88;;;9.71;100.00
28448;BME280;15675;52.870;-1.416;2022-11-02T00:49:36;100298.00;;;9.82;100.00
28448;BME280;15675;52.870;-1.416;2022-11-02T00:52:02;100305.78;;;9.59;100.00
28448;BME280;15675;52.870;-1.416;2022-11-02T00:54:28;100308.38;;;9.59;100.00
28448;BME280;15675;52.870;-1.416;2022-11-02T00:56:53;100329.97;;;9.61;100.00
28448;BME280;15675;52.870;-1.416;2022-11-02T00:59:19;100330.81;;;9.59;100.00
28448;BME280;15675;52.870;-1.416;2022-11-02T01:01:44;100335.13;;;9.66;100.00
28448;BME280;15675;52.870;-1.416;2022-11-02T01:04:15;100348.13;;;9.81;100.00
28448;BME280;15675;52.870;-1.416;2022-11-02T01:06:42;100354.97;;;9.56;100.00
28448;BME280;15675;52.870;-1.416;2022-11-02T01:09:08;100342.06;;;9.62;100.00
28448;BME280;15675;52.870;-1.416;2022-11-02T01:11:34;100360.16;;;9.55;100.00
28448;BME280;15675;52.870;-1.416;2022-11-02T01:14:00;100364.50;;;9.59;100.00
28448;BME280;15675;52.870;-1.416;2022-11-02T01:16:26;100372.28;;;9.56;100.00
28448;BME280;15675;52.870;-1.416;2022-11-02T01:18:53;100376.59;;;9.52;100.00
28448;BME280;15675;52.870;-1.416;2022-11-02T01:21:20;100381.81;;;9.69;100.00
28448;BME280;15675;52.870;-1.416;2022-11-02T01:23:46;100372.25;;;9.53;100.00
28448;BME280;15675;52.870;-1.416;2022-11-02T01:26:12;100381.75;;;9.47;100.00
28448;BME280;15675;52.870;-1.416;2022-11-02T01:28:38;100385.22;;;9.53;100.00
28448;BME280;15675;52.870;-1.416;2022-11-02T01:31:04;100393.88;;;9.59;100.00
28448;BME280;15675;52.870;-1.416;2022-11-02T01:33:31;100399.03;;;9.45;100.00
28448;BME280;15675;52.870;-1.416;2022-11-02T01:35:57;100411.97;;;9.50;100.00
28448;BME280;15675;52.870;-1.416;2022-11-02T01:38:23;100407.69;;;9.50;100.00
28448;BME280;15675;52.870;-1.416;2022-11-02T01:40:49;100424.09;;;9.59;100.00
28448;BME280;15675;52.870;-1.416;2022-11-02T01:43:24;100424.94;;;9.44;100.00
28448;BME280;15675;52.870;-1.416;2022-11-02T01:45:54;100422.28;;;9.28;100.00
28448;BME280;15675;52.870;-1.416;2022-11-02T01:48:30;100431.78;;;9.34;100.00
28448;BME280;15675;52.870;-1.416;2022-11-02T01:50:59;100431.00;;;9.55;100.00
28448;BME280;15675;52.870;-1.416;2022-11-02T01:53:26;100431.72;;;9.15;100.00
28448;BME280;15675;52.870;-1.416;2022-11-02T01:55:53;100436.06;;;9.24;100.00
28448;BME280;15675;52.870;-1.416;2022-11-02T01:58:18;100429.97;;;9.13;100.00
28448;BME280;15675;52.870;-1.416;2022-11-02T02:00:45;100453.34;;;9.28;100.00
28448;BME280;15675;52.870;-1.416;2022-11-02T02:03:15;100454.16;;;9.17;100.00
28448;BME280;15675;52.870;-1.416;2022-11-02T02:05:54;100454.16;;;9.15;100.00
28448;BME280;15675;52.870;-1.416;2022-11-02T02:08:22;100471.50;;;9.33;100.00
28448;BME280;15675;52.870;-1.416;2022-11-02T02:10:49;100476.53;;;9.08;100.00
28448;BME280;15675;52.870;-1.416;2022-11-02T02:13:15;100467.97;;;9.17;100.00
28448;BME280;15675;52.870;-1.416;2022-11-02T02:16:06;100470.44;;;8.98;100.00
28448;BME280;15675;52.870;-1.416;2022-11-02T02:18:47;100474.72;;;8.95;100.00
28448;BME280;15675;52.870;-1.416;2022-11-02T02:26:59;100485.13;;;9.01;100.00
28448;BME280;15675;52.870;-1.416;2022-11-02T02:32:33;100495.50;;;9.04;100.00
28448;BME280;15675;52.870;-1.416;2022-11-02T02:38:10;100492.94;;;9.07;100.00
28448;BME280;15675;52.870;-1.416;2022-11-02T02:40:38;100493.75;;;8.98;100.00
28448;BME280;15675;52.870;-1.416;2022-11-02T02:43:10;100494.69;;;9.08;100.00
28448;BME280;15675;52.870;-1.416;2022-11-02T02:45:50;100495.59;;;9.17;100.00
28448;BME280;15675;52.870;-1.416;2022-11-02T02:48:20;100493.84;;;9.15;100.00
28448;BME280;15675;52.870;-1.416;2022-11-02T02:50:49;100499.78;;;8.97;100.00
28448;BME280;15675;52.870;-1.416;2022-11-02T02:53:19;100501.50;;;8.98;100.00
28448;BME280;15675;52.870;-1.416;2022-11-02T02:55:48;100489.44;;;9.01;100.00
28448;BME280;15675;52.870;-1.416;2022-11-02T02:58:19;100507.63;;;9.10;100.00
28448;BME280;15675;52.870;-1.416;2022-11-02T03:00:45;100505.03;;;9.10;100.00
28448;BME280;15675;52.870;-1.416;2022-11-02T03:03:16;100512.81;;;9.08;100.00
28448;BME280;15675;52.870;-1.416;2022-11-02T03:05:58;100519.66;;;9.02;100.00
28448;BME280;15675;52.870;-1.416;2022-11-02T03:08:26;100530.06;;;9.08;100.00
28448;BME280;15675;52.870;-1.416;2022-11-02T03:13:44;100553.31;;;9.02;100.00
28448;BME280;15675;52.870;-1.416;2022-11-02T03:18:51;100552.44;;;8.98;100.00
28448;BME280;15675;52.870;-1.416;2022-11-02T03:26:45;100568.84;;;9.02;100.00
28448;BME280;15675;52.870;-1.416;2022-11-02T03:34:40;100575.63;;;8.87;100.00
28448;BME280;15675;52.870;-1.416;2022-11-02T03:37:17;100583.41;;;8.89;100.00
28448;BME280;15675;52.870;-1.416;2022-11-02T03:39:47;100591.03;;;8.75;100.00
28448;BME280;15675;52.870;-1.416;2022-11-02T03:42:21;100596.13;;;8.61;100.00
28448;BME280;15675;52.870;-1.416;2022-11-02T03:44:52;100590.16;;;8.70;100.00
28448;BME280;15675;52.870;-1.416;2022-11-02T03:47:21;100591.91;;;8.74;100.00
28448;BME280;15675;52.870;-1.416;2022-11-02T03:49:49;100587.56;;;8.70;100.00
28448;BME280;15675;52.870;-1.416;2022-11-02T03:52:20;100599.66;;;8.71;100.00
28448;BME280;15675;52.870;-1.416;2022-11-02T03:55:03;100607.53;;;8.86;100.00
28448;BME280;15675;52.870;-1.416;2022-11-02T03:58:00;100620.53;;;8.91;100.00
28448;BME280;15675;52.870;-1.416;2022-11-02T04:00:29;100610.03;;;8.75;100.00
28448;BME280;15675;52.870;-1.416;2022-11-02T04:02:59;100610.00;;;8.71;100.00
28448;BME280;15675;52.870;-1.416;2022-11-02T04:05:30;100605.69;;;8.71;100.00
28448;BME280;15675;52.870;-1.416;2022-11-02T04:07:57;100610.91;;;8.77;100.00
28448;BME280;15675;52.870;-1.416;2022-11-02T04:10:41;100609.09;;;8.67;100.00
28448;BME280;15675;52.870;-1.416;2022-11-02T04:13:27;100618.69;;;8.77;100.00
28448;BME280;15675;52.870;-1.416;2022-11-02T04:16:12;100616.91;;;8.73;100.00
28448;BME280;15675;52.870;-1.416;2022-11-02T04:18:38;100617.78;;;8.74;100.00
28448;BME280;15675;52.870;-1.416;2022-11-02T04:21:22;100619.41;;;8.61;100.00
28448;BME280;15675;52.870;-1.416;2022-11-02T04:23:48;100630.50;;;8.52;100.00
28448;BME280;15675;52.870;-1.416;2022-11-02T04:26:32;100633.06;;;8.51;100.00
28448;BME280;15675;52.870;-1.416;2022-11-02T04:28:57;100632.22;;;8.50;100.00
28448;BME280;15675;52.870;-1.416;2022-11-02T04:31:23;100640.84;;;8.52;100.00
28448;BME280;15675;52.870;-1.416;2022-11-02T04:33:48;100634.03;;;8.60;100.00
28448;BME280;15675;52.870;-1.416;2022-11-02T04:36:14;100645.97;;;8.48;100.00
28448;BME280;15675;52.870;-1.416;2022-11-02T04:38:39;100639.94;;;8.45;100.00
28448;BME280;15675;52.870;-1.416;2022-11-02T04:43:50;100644.31;;;8.51;100.00
28448;BME280;15675;52.870;-1.416;2022-11-02T04:46:16;100649.50;;;8.53;100.00
28448;BME280;15675;52.870;-1.416;2022-11-02T04:48:41;100643.41;;;8.51;100.00
28448;BME280;15675;52.870;-1.416;2022-11-02T04:51:07;100652.16;;;8.62;100.00
28448;BME280;15675;52.870;-1.416;2022-11-02T04:53:32;100658.94;;;8.51;100.00
28448;BME280;15675;52.870;-1.416;2022-11-02T04:55:59;100671.81;;;8.46;100.00
28448;BME280;15675;52.870;-1.416;2022-11-02T04:58:25;100659.88;;;8.56;100.00
28448;BME280;15675;52.870;-1.416;2022-11-02T05:00:51;100668.16;;;8.28;100.00
28448;BME280;15675;52.870;-1.416;2022-11-02T05:03:16;100659.53;;;8.29;100.00
28448;BME280;15675;52.870;-1.416;2022-11-02T05:05:41;100669.06;;;8.34;100.00
28448;BME280;15675;52.870;-1.416;2022-11-02T05:08:08;100671.56;;;8.27;100.00
28448;BME280;15675;52.870;-1.416;2022-11-02T05:10:34;100669.75;;;8.19;100.00
28448;BME280;15675;52.870;-1.416;2022-11-02T05:12:59;100685.22;;;8.14;100.00
28448;BME280;15675;52.870;-1.416;2022-11-02T05:15:25;100683.53;;;8.19;100.00
28448;BME280;15675;52.870;-1.416;2022-11-02T05:17:51;100690.50;;;8.26;100.00
28448;BME280;15675;52.870;-1.416;2022-11-02T05:20:16;100679.25;;;8.20;100.00
28448;BME280;15675;52.870;-1.416;2022-11-02T05:22:42;100686.25;;;8.28;100.00
28448;BME280;15675;52.870;-1.416;2022-11-02T05:25:09;100682.66;;;8.17;100.00
28448;BME280;15675;52.870;-1.416;2022-11-02T05:27:34;100684.50;;;8.26;100.00
28448;BME280;15675;52.870;-1.416;2022-11-02T05:30:00;100673.25;;;8.22;100.00
28448;BME280;15675;52.870;-1.416;2022-11-02T05:32:26;100681.94;;;8.29;100.00
28448;BME280;15675;52.870;-1.416;2022-11-02T05:34:51;100676.75;;;8.27;100.00
28448;BME280;15675;52.870;-1.416;2022-11-02T05:37:17;100683.59;;;8.22;100.00
28448;BME280;15675;52.870;-1.416;2022-11-02T05:39:43;100694.16;;;8.41;100.00
28448;BME280;15675;52.870;-1.416;2022-11-02T05:42:08;100688.94;;;8.39;100.00
28448;BME280;15675;52.870;-1.416;2022-11-02T05:44:34;100681.88;;;8.23;100.00
28448;BME280;15675;52.870;-1.416;2022-11-02T05:47:00;100683.53;;;8.21;100.00
28448;BME280;15675;52.870;-1.416;2022-11-02T05:49:25;100686.31;;;8.36;100.00
28448;BME280;15675;52.870;-1.416;2022-11-02T05:51:51;100676.69;;;8.21;100.00
28448;BME280;15675;52.870;-1.416;2022-11-02T05:54:16;100678.38;;;8.21;100.00
28448;BME280;15675;52.870;-1.416;2022-11-02T05:56:42;100683.66;;;8.28;100.00
28448;BME280;15675;52.870;-1.416;2022-11-02T05:59:07;100676.78;;;8.30;100.00
28448;BME280;15675;52.870;-1.416;2022-11-02T06:01:33;100674.28;;;8.37;100.00
28448;BME280;15675;52.870;-1.416;2022-11-02T06:03:58;100678.84;;;8.56;100.00
28448;BME280;15675;52.870;-1.416;2022-11-02T06:06:24;100675.13;;;8.36;100.00
28448;BME280;15675;52.870;-1.416;2022-11-02T06:08:49;100676.09;;;8.44;100.00
28448;BME280;15675;52.870;-1.416;2022-11-02T06:11:15;100675.22;;;8.43;100.00
28448;BME280;15675;52.870;-1.416;2022-11-02T06:13:41;100677.59;;;8.26;100.00
28448;BME280;15675;52.870;-1.416;2022-11-02T06:16:08;100682.03;;;8.37;100.00
28448;BME280;15675;52.870;-1.416;2022-11-02T06:18:35;100681.06;;;8.28;100.00
28448;BME280;15675;52.870;-1.416;2022-11-02T06:21:01;100675.31;;;8.46;100.00
28448;BME280;15675;52.870;-1.416;2022-11-02T06:23:27;100662.50;;;8.60;100.00
28448;BME280;15675;52.870;-1.416;2022-11-02T06:25:55;100672.72;;;8.48;100.00
28448;BME280;15675;52.870;-1.416;2022-11-02T06:28:22;100680.59;;;8.60;100.00
28448;BME280;15675;52.870;-1.416;2022-11-02T06:30:48;100682.28;;;8.55;100.00
28448;BME280;15675;52.870;-1.416;2022-11-02T06:33:14;100680.69;;;8.65;100.00
28448;BME280;15675;52.870;-1.416;2022-11-02T06:35:44;100672.88;;;8.63;100.00
28448;BME280;15675;52.870;-1.416;2022-11-02T06:38:10;100673.84;;;8.75;100.00
28448;BME280;15675;52.870;-1.416;2022-11-02T06:40:36;100677.44;;;8.88;100.00
28448;BME280;15675;52.870;-1.416;2022-11-02T06:43:01;100677.44;;;8.86;100.00
28448;BME280;15675;52.870;-1.416;2022-11-02T06:45:27;100682.59;;;8.85;100.00
28448;BME280;15675;52.870;-1.416;2022-11-02T06:47:52;100692.47;;;8.43;100.00
28448;BME280;15675;52.870;-1.416;2022-11-02T06:50:18;100695.81;;;8.36;100.00
28448;BME280;15675;52.870;-1.416;2022-11-02T06:52:44;100694.91;;;8.32;100.00
28448;BME280;15675;52.870;-1.416;2022-11-02T06:55:11;100699.34;;;8.41;100.00
28448;BME280;15675;52.870;-1.416;2022-11-02T06:57:37;100703.63;;;8.39;100.00
28448;BME280;15675;52.870;-1.416;2022-11-02T07:00:05;100698.97;;;8.13;100.00
28448;BME280;15675;52.870;-1.416;2022-11-02T07:02:32;100701.00;;;8.36;100.00
28448;BME280;15675;52.870;-1.416;2022-11-02T07:04:57;100696.78;;;8.42;100.00
28448;BME280;15675;52.870;-1.416;2022-11-02T07:07:23;100698.16;;;8.17;100.00
28448;BME280;15675;52.870;-1.416;2022-11-02T07:09:49;100700.78;;;8.19;100.00
28448;BME280;15675;52.870;-1.416;2022-11-02T07:12:14;100701.84;;;8.35;100.00
28448;BME280;15675;52.870;-1.416;2022-11-02T07:14:40;100701.84;;;8.36;100.00
28448;BME280;15675;52.870;-1.416;2022-11-02T07:17:05;100706.81;;;8.21;100.00
28448;BME280;15675;52.870;-1.416;2022-11-02T07:19:31;100714.66;;;8.25;100.00
28448;BME280;15675;52.870;-1.416;2022-11-02T07:21:56;100712.97;;;8.30;100.00
28448;BME280;15675;52.870;-1.416;2022-11-02T07:24:22;100713.09;;;8.37;100.00
28448;BME280;15675;52.870;-1.416;2022-11-02T07:26:48;100703.50;;;8.29;100.00
28448;BME280;15675;52.870;-1.416;2022-11-02T07:29:15;100713.84;;;8.28;100.00
28448;BME280;15675;52.870;-1.416;2022-11-02T07:31:41;100717.25;;;8.27;100.00
28448;BME280;15675;52.870;-1.416;2022-11-02T07:34:07;100724.25;;;8.34;100.00
28448;BME280;15675;52.870;-1.416;2022-11-02T07:36:32;100713.09;;;8.37;100.00
28448;BME280;15675;52.870;-1.416;2022-11-02T07:38:58;100719.28;;;8.48;100.00
28448;BME280;15675;52.870;-1.416;2022-11-02T07:41:23;100713.44;;;8.64;100.00
28448;BME280;15675;52.870;-1.416;2022-11-02T07:43:49;100716.00;;;8.63;100.00
28448;BME280;15675;52.870;-1.416;2022-11-02T07:46:14;100716.97;;;8.73;100.00
28448;BME280;15675;52.870;-1.416;2022-11-02T07:48:40;100708.38;;;8.74;100.00
28448;BME280;15675;52.870;-1.416;2022-11-02T07:51:05;100713.78;;;8.95;100.00
28448;BME280;15675;52.870;-1.416;2022-11-02T07:53:36;100722.38;;;8.94;100.00
28448;BME280;15675;52.870;-1.416;2022-11-02T07:56:03;100726.88;;;9.09;100.00
28448;BME280;15675;52.870;-1.416;2022-11-02T07:58:28;100727.69;;;9.04;100.00
28448;BME280;15675;52.870;-1.416;2022-11-02T08:00:59;100722.69;;;9.24;100.00
28448;BME280;15675;52.870;-1.416;2022-11-02T08:03:26;100722.91;;;9.53;100.00
28448;BME280;15675;52.870;-1.416;2022-11-02T08:05:51;100723.50;;;9.17;100.00
28448;BME280;15675;52.870;-1.416;2022-11-02T08:08:19;100723.81;;;9.57;100.00
28448;BME280;15675;52.870;-1.416;2022-11-02T08:10:47;100727.16;;;9.43;100.00
28448;BME280;15675;52.870;-1.416;2022-11-02T08:13:17;100723.75;;;9.49;100.00
28448;BME280;15675;52.870;-1.416;2022-11-02T08:15:43;100727.38;;;9.70;100.00
28448;BME280;15675;52.870;-1.416;2022-11-02T08:18:18;100725.66;;;9.73;100.00
28448;BME280;15675;52.870;-1.416;2022-11-02T08:20:44;100725.59;;;9.62;100.00
28448;BME280;15675;52.870;-1.416;2022-11-02T08:23:10;100719.66;;;9.79;100.00
28448;BME280;15675;52.870;-1.416;2022-11-02T08:25:38;100726.78;;;10.08;100.00
28448;BME280;15675;52.870;-1.416;2022-11-02T08:28:05;100712.06;;;10.08;100.00
28448;BME280;15675;52.870;-1.416;2022-11-02T08:30:31;100713.84;;;10.15;100.00
28448;BME280;15675;52.870;-1.416;2022-11-02T08:33:05;100712.97;;;10.12;100.00
28448;BME280;15675;52.870;-1.416;2022-11-02T08:35:31;100707.81;;;10.19;100.00
28448;BME280;15675;52.870;-1.416;2022-11-02T08:37:57;100709.50;;;10.13;100.00
28448;BME280;15675;52.870;-1.416;2022-11-02T08:40:25;100719.84;;;10.10;100.00
28448;BME280;15675;52.870;-1.416;2022-11-02T08:42:58;100717.16;;;9.93;100.00
28448;BME280;15675;52.870;-1.416;2022-11-02T08:45:25;100717.28;;;10.14;100.00
28448;BME280;15675;52.870;-1.416;2022-11-02T08:47:51;100718.19;;;10.23;100.00
28448;BME280;15675;52.870;-1.416;2022-11-02T08:50:16;100712.94;;;10.10;100.00
28448;BME280;15675;52.870;-1.416;2022-11-02T08:52:42;100711.13;;;9.95;100.00
28448;BME280;15675;52.870;-1.416;2022-11-02T08:55:08;100711.31;;;10.29;100.00
28448;BME280;15675;52.870;-1.416;2022-11-02T08:57:46;100703.50;;;10.23;100.00
28448;BME280;15675;52.870;-1.416;2022-11-02T09:00:13;100702.59;;;10.15;100.00
28448;BME280;15675;52.870;-1.416;2022-11-02T09:02:40;100704.38;;;10.28;100.00
28448;BME280;15675;52.870;-1.416;2022-11-02T09:05:06;100705.22;;;10.21;100.00
28448;BME280;15675;52.870;-1.416;2022-11-02T09:07:32;100702.75;;;10.38;100.00
28448;BME280;15675;52.870;-1.416;2022-11-02T09:09:57;100713.00;;;10.18;100.00
28448;BME280;15675;52.870;-1.416;2022-11-02T09:12:23;100708.00;;;10.50;100.00
28448;BME280;15675;52.870;-1.416;2022-11-02T09:14:48;100708.00;;;10.61;100.00
28448;BME280;15675;52.870;-1.416;2022-11-02T09:17:14;100702.81;;;10.55;100.00
28448;BME280;15675;52.870;-1.416;2022-11-02T09:19:39;100701.06;;;10.48;100.00
28448;BME280;15675;52.870;-1.416;2022-11-02T09:22:05;100699.38;;;10.58;100.00
28448;BME280;15675;52.870;-1.416;2022-11-02T09:24:30;100701.91;;;10.45;100.00
28448;BME280;15675;52.870;-1.416;2022-11-02T09:26:56;100685.50;;;10.54;100.00
28448;BME280;15675;52.870;-1.416;2022-11-02T09:29:21;100695.03;;;10.64;100.00
28448;BME280;15675;52.870;-1.416;2022-11-02T09:31:47;100684.69;;;10.75;100.00
28448;BME280;15675;52.870;-1.416;2022-11-02T09:34:14;100677.75;;;10.65;100.00
28448;BME280;15675;52.870;-1.416;2022-11-02T09:36:39;100663.06;;;10.73;100.00
28448;BME280;15675;52.870;-1.416;2022-11-02T09:39:05;100657.88;;;10.84;100.00
28448;BME280;15675;52.870;-1.416;2022-11-02T09:44:34;100662.22;;;11.10;100.00
28448;BME280;15675;52.870;-1.416;2022-11-02T09:47:04;100668.28;;;10.99;100.00
28448;BME280;15675;52.870;-1.416;2022-11-02T09:49:33;100665.72;;;11.13;100.00
28448;BME280;15675;52.870;-1.416;2022-11-02T09:51:59;100651.84;;;10.99;100.00
28448;BME280;15675;52.870;-1.416;2022-11-02T09:54:39;100644.03;;;10.97;100.00
28448;BME280;15675;52.870;-1.416;2022-11-02T09:57:29;100625.84;;;10.97;100.00
28448;BME280;15675;52.870;-1.416;2022-11-02T09:59:55;100625.00;;;11.28;100.00
28448;BME280;15675;52.870;-1.416;2022-11-02T10:05:40;100611.13;;;11.27;100.00
28448;BME280;15675;52.870;-1.416;2022-11-02T10:10:48;100601.59;;;11.34;100.00
28448;BME280;15675;52.870;-1.416;2022-11-02T10:18:43;100597.13;;;11.88;100.00
28448;BME280;15675;52.870;-1.416;2022-11-02T10:21:18;100593.69;;;11.94;100.00
28448;BME280;15675;52.870;-1.416;2022-11-02T10:23:51;100604.91;;;12.05;100.00
28448;BME280;15675;52.870;-1.416;2022-11-02T10:26:28;100560.75;;;11.96;100.00
28448;BME280;15675;52.870;-1.416;2022-11-02T10:29:10;100559.81;;;12.08;100.00
28448;BME280;15675;52.870;-1.416;2022-11-02T10:31:36;100568.38;;;12.24;100.00
28448;BME280;15675;52.870;-1.416;2022-11-02T10:34:23;100572.63;;;12.42;100.00
28448;BME280;15675;52.870;-1.416;2022-11-02T10:48:16;100549.28;;;12.26;100.00
28448;BME280;15675;52.870;-1.416;2022-11-02T10:53:16;100532.91;;;12.11;100.00
28448;BME280;15675;52.870;-1.416;2022-11-02T10:56:07;100517.34;;;12.01;100.00
28448;BME280;15675;52.870;-1.416;2022-11-02T10:58:39;100526.06;;;11.96;100.00
28448;BME280;15675;52.870;-1.416;2022-11-02T11:01:09;100516.47;;;12.02;100.00
28448;BME280;15675;52.870;-1.416;2022-11-02T11:04:23;100511.25;;;12.08;100.00
28448;BME280;15675;52.870;-1.416;2022-11-02T11:06:49;100496.50;;;12.11;100.00
28448;BME280;15675;52.870;-1.416;2022-11-02T11:09:20;100507.72;;;12.19;100.00
28448;BME280;15675;52.870;-1.416;2022-11-02T11:12:00;100487.91;;;11.98;100.00
28448;BME280;15675;52.870;-1.416;2022-11-02T11:14:28;100491.88;;;12.48;100.00
28448;BME280;15675;52.870;-1.416;2022-11-02T11:16:59;100474.69;;;12.30;100.00
28448;BME280;15675;52.870;-1.416;2022-11-02T11:19:39;100478.22;;;12.23;100.00
28448;BME280;15675;52.870;-1.416;2022-11-02T11:22:37;100477.31;;;12.22;100.00
28448;BME280;15675;52.870;-1.416;2022-11-02T11:27:48;100461.72;;;12.27;100.00
28448;BME280;15675;52.870;-1.416;2022-11-02T11:30:31;100460.78;;;12.36;100.00
28448;BME280;15675;52.870;-1.416;2022-11-02T11:32:59;100456.50;;;12.27;100.00
28448;BME280;15675;52.870;-1.416;2022-11-02T11:35:29;100453.63;;;12.59;100.00
28448;BME280;15675;52.870;-1.416;2022-11-02T11:38:04;100443.19;;;12.59;100.00
28448;BME280;15675;52.870;-1.416;2022-11-02T11:40:37;100427.53;;;12.63;100.00
28448;BME280;15675;52.870;-1.416;2022-11-02T11:43:09;100410.13;;;12.69;100.00
28448;BME280;15675;52.870;-1.416;2022-11-02T11:45:36;100393.69;;;12.63;100.00
28448;BME280;15675;52.870;-1.416;2022-11-02T11:50:34;100379.00;;;12.60;100.00
28448;BME280;15675;52.870;-1.416;2022-11-02T11:55:45;100370.25;;;12.63;100.00
28448;BME280;15675;52.870;-1.416;2022-11-02T12:00:40;100362.38;;;12.72;100.00
28448;BME280;15675;52.870;-1.416;2022-11-02T12:03:11;100350.13;;;12.80;100.00
28448;BME280;15675;52.870;-1.416;2022-11-02T12:06:02;100354.47;;;12.78;100.00
28448;BME280;15675;52.870;-1.416;2022-11-02T12:13:59;100333.06;;;12.53;100.00
28448;BME280;15675;52.870;-1.416;2022-11-02T12:20:24;100331.09;;;12.73;100.00
28448;BME280;15675;52.870;-1.416;2022-11-02T12:33:41;100299.34;;;13.13;100.00
28448;BME280;15675;52.870;-1.416;2022-11-02T12:38:59;100276.91;;;13.03;100.00
28448;BME280;15675;52.870;-1.416;2022-11-02T12:42:19;100272.28;;;13.22;100.00
28448;BME280;15675;52.870;-1.416;2022-11-02T12:44:47;100259.78;;;13.49;100.00
28448;BME280;15675;52.870;-1.416;2022-11-02T12:47:29;100252.94;;;13.42;100.00
28448;BME280;15675;52.870;-1.416;2022-11-02T12:52:55;100220.56;;;13.57;100.00
28448;BME280;15675;52.870;-1.416;2022-11-02T12:55:28;100209.19;;;13.59;99.96
28448;BME280;15675;52.870;-1.416;2022-11-02T12:58:00;100214.22;;;13.72;99.83
28448;BME280;15675;52.870;-1.416;2022-11-02T13:00:30;100217.66;;;13.72;100.00
28448;BME280;15675;52.870;-1.416;2022-11-02T13:03:16;100213.38;;;13.70;99.35
28448;BME280;15675;52.870;-1.416;2022-11-02T13:05:50;100203.91;;;13.66;100.00
28448;BME280;15675;52.870;-1.416;2022-11-02T13:08:22;100205.72;;;13.60;100.00
28448;BME280;15675;52.870;-1.416;2022-11-02T13:10:58;100213.66;;;13.54;100.00
28448;BME280;15675;52.870;-1.416;2022-11-02T13:13:44;100202.31;;;13.57;100.00
28448;BME280;15675;52.870;-1.416;2022-11-02T13:16:13;100189.56;;;13.40;100.00
28448;BME280;15675;52.870;-1.416;2022-11-02T13:18:47;100192.22;;;13.37;100.00
28448;BME280;15675;52.870;-1.416;2022-11-02T13:21:17;100173.56;;;13.60;100.00
28448;BME280;15675;52.870;-1.416;2022-11-02T13:23:49;100159.16;;;13.39;100.00
28448;BME280;15675;52.870;-1.416;2022-11-02T13:26:35;100144.44;;;13.33;100.00
28448;BME280;15675;52.870;-1.416;2022-11-02T13:29:14;100140.06;;;13.35;100.00
28448;BME280;15675;52.870;-1.416;2022-11-02T13:31:52;100134.97;;;13.27;100.00
28448;BME280;15675;52.870;-1.416;2022-11-02T13:34:35;100131.72;;;13.66;100.00
28448;BME280;15675;52.870;-1.416;2022-11-02T13:37:08;100092.06;;;13.49;100.00
28448;BME280;15675;52.870;-1.416;2022-11-02T13:39:41;100102.31;;;13.58;100.00
28448;BME280;15675;52.870;-1.416;2022-11-02T13:50:17;100074.75;;;13.44;100.00
28448;BME280;15675;52.870;-1.416;2022-11-02T13:53:00;100062.59;;;13.45;100.00
28448;BME280;15675;52.870;-1.416;2022-11-02T13:55:38;100077.06;;;13.61;100.00
28448;BME280;15675;52.870;-1.416;2022-11-02T13:58:06;100070.13;;;13.60;100.00
28448;BME280;15675;52.870;-1.416;2022-11-02T14:00:51;100085.94;;;13.51;100.00
28448;BME280;15675;52.870;-1.416;2022-11-02T14:03:22;100074.22;;;13.72;99.69
28448;BME280;15675;52.870;-1.416;2022-11-02T14:05:55;100068.72;;;13.44;100.00
28448;BME280;15675;52.870;-1.416;2022-11-02T14:08:33;100074.78;;;13.90;99.96
28448;BME280;15675;52.870;-1.416;2022-11-02T14:16:41;100056.06;;;13.68;100.00
28448;BME280;15675;52.870;-1.416;2022-11-02T14:22:08;100060.44;;;13.67;100.00
28448;BME280;15675;52.870;-1.416;2022-11-02T14:32:32;100039.81;;;13.55;100.00
28448;BME280;15675;52.870;-1.416;2022-11-02T14:35:02;100031.41;;;13.40;100.00
28448;BME280;15675;52.870;-1.416;2022-11-02T14:45:26;100007.44;;;13.65;100.00
28448;BME280;15675;52.870;-1.416;2022-11-02T14:48:00;99977.38;;;13.49;100.00
28448;BME280;15675;52.870;-1.416;2022-11-02T14:50:27;99987.69;;;13.53;100.00
28448;BME280;15675;52.870;-1.416;2022-11-02T14:52:58;99957.19;;;13.58;100.00
28448;BME280;15675;52.870;-1.416;2022-11-02T14:55:33;99978.97;;;13.56;100.00